TimePST,TemperatureF,Dew PointF,Humidity,Sea Level PressureIn,VisibilityMPH,Wind Direction,Wind SpeedMPH,Gust SpeedMPH,PrecipitationIn,Events,Conditions,WindDirDegrees,DateUTC
12:53 AM,62.1,45.0,53,30.02,10.0,SE,10.4,-,N/A,,Mostly Cloudy,130,2012-11-16 08:53:00
1:53 AM,62.1,45.0,53,30.01,10.0,ESE,12.7,-,N/A,,Overcast,120,2012-11-16 09:53:00
2:53 AM,62.1,45.0,53,30.00,10.0,ESE,16.1,-,N/A,,Mostly Cloudy,120,2012-11-16 10:53:00
3:53 AM,61.0,45.0,56,30.00,10.0,ESE,12.7,-,N/A,,Mostly Cloudy,120,2012-11-16 11:53:00
4:53 AM,61.0,44.1,54,29.99,10.0,ESE,11.5,-,N/A,,Overcast,120,2012-11-16 12:53:00
5:53 AM,61.0,46.9,60,29.99,10.0,ESE,21.9,27.6,N/A,,Mostly Cloudy,120,2012-11-16 13:53:00
6:53 AM,59.0,50.0,72,30.01,9.0,ESE,15.0,-,0.00,Rain,Light Rain,120,2012-11-16 14:53:00
7:53 AM,57.9,52.0,81,30.01,4.0,East,19.6,-,0.03,Rain,Rain,100,2012-11-16 15:53:00
8:53 AM,57.9,52.0,81,30.02,6.0,ESE,19.6,-,0.02,Rain,Light Rain,120,2012-11-16 16:53:00
9:53 AM,59.0,53.1,81,30.04,9.0,SE,15.0,-,0.05,Rain,Light Rain,130,2012-11-16 17:53:00
10:53 AM,61.0,55.0,81,30.02,10.0,ESE,20.7,-,N/A,,Overcast,120,2012-11-16 18:53:00
11:53 AM,64.0,54.0,70,29.99,10.0,ESE,20.7,-,0.00,,Clear,110,2012-11-16 19:53:00
12:53 PM,64.9,54.0,68,29.98,10.0,ESE,19.6,29.9,N/A,,Overcast,120,2012-11-16 20:53:00
1:53 PM,66.9,55.0,66,29.96,10.0,ESE,17.3,-,N/A,,Overcast,120,2012-11-16 21:53:00
2:53 PM,68.0,55.0,63,29.95,10.0,ESE,19.6,-,N/A,,Overcast,120,2012-11-16 22:53:00
3:53 PM,64.9,55.0,70,29.95,10.0,SE,17.3,24.2,0.00,Rain,Light Rain,130,2012-11-16 23:53:00
4:53 PM,64.9,55.0,70,29.94,10.0,ESE,17.3,-,0.00,,Overcast,120,2012-11-17 00:53:00
5:53 PM,64.0,55.0,73,29.94,10.0,SE,13.8,-,0.00,,Overcast,130,2012-11-17 01:53:00
6:53 PM,63.0,55.9,78,29.93,10.0,ESE,11.5,-,0.00,Rain,Light Rain,120,2012-11-17 02:53:00
7:53 PM,63.0,55.9,78,29.92,10.0,ESE,12.7,-,N/A,,Overcast,120,2012-11-17 03:53:00
8:53 PM,64.0,55.0,73,29.93,10.0,SE,15.0,-,N/A,,Mostly Cloudy,130,2012-11-17 04:53:00
9:53 PM,64.0,55.0,73,29.93,10.0,SE,16.1,-,0.00,,Overcast,130,2012-11-17 05:53:00
10:53 PM,63.0,55.0,75,29.91,10.0,ESE,16.1,-,0.00,,Mostly Cloudy,120,2012-11-17 06:53:00
11:53 PM,64.0,54.0,70,29.88,10.0,ESE,24.2,28.8,0.00,Rain,Light Rain,110,2012-11-17 07:53:00